createdAt,value
2023-02-25T00:01:46.389Z,8.45
2023-02-25T00:04:21.082Z,8.75
2023-02-25T00:06:48.402Z,9.68
2023-02-25T00:09:15.611Z,7.35
2023-02-25T00:11:46.593Z,10.93
2023-02-25T00:14:13.885Z,9.55
2023-02-25T00:16:41.291Z,8.10
2023-02-25T00:19:08.626Z,8.60
2023-02-25T00:21:35.940Z,8.90
2023-02-25T00:24:15.488Z,11.13
2023-02-25T00:26:44.627Z,10.32
2023-02-25T00:29:11.895Z,8.82
2023-02-25T00:31:42.006Z,8.27
2023-02-25T00:34:10.513Z,9.27
2023-02-25T00:36:42.483Z,9.63
2023-02-25T00:39:12.177Z,8.68
2023-02-25T00:41:39.554Z,10.93
2023-02-25T00:44:07.382Z,10.85
2023-02-25T00:46:35.652Z,12.55
2023-02-25T00:49:07.394Z,9.32
2023-02-25T00:51:34.529Z,10.55
2023-02-25T00:54:01.757Z,10.98
2023-02-25T00:56:28.880Z,10.30
2023-02-25T00:58:56.084Z,11.07
2023-02-25T01:01:30.654Z,11.80
2023-02-25T01:03:58.433Z,11.60
2023-02-25T01:06:31.148Z,10.60
2023-02-25T01:08:59.408Z,10.10
2023-02-25T01:11:30.967Z,10.02
2023-02-25T01:14:05.657Z,12.13
2023-02-25T01:16:35.255Z,9.57
2023-02-25T01:19:14.925Z,12.32
2023-02-25T01:21:48.878Z,11.15
2023-02-25T01:24:30.093Z,11.70
2023-02-25T01:27:01.737Z,11.20
2023-02-25T01:29:40.613Z,11.82
2023-02-25T01:32:14.169Z,11.52
2023-02-25T01:34:42.143Z,11.30
2023-02-25T01:37:12.645Z,14.02
2023-02-25T01:39:41.347Z,12.10
2023-02-25T01:42:16.440Z,12.88
2023-02-25T01:45:17.868Z,13.07
2023-02-25T01:48:18.629Z,12.85
2023-02-25T01:51:03.011Z,11.82
2023-02-25T01:53:43.723Z,12.02
2023-02-25T01:56:15.232Z,12.52
2023-02-25T01:58:43.082Z,13.73
2023-02-25T02:01:21.179Z,12.63
2023-02-25T02:03:50.417Z,13.23
2023-02-25T02:06:30.285Z,16.73
2023-02-25T02:09:01.629Z,16.70
2023-02-25T02:11:31.085Z,12.87
2023-02-25T02:13:59.501Z,11.80
2023-02-25T02:16:49.451Z,14.50
2023-02-25T02:19:50.460Z,11.95
2023-02-25T02:22:54.689Z,11.88
2023-02-25T02:25:33.994Z,12.13
2023-02-25T02:28:15.929Z,14.80
2023-02-25T02:31:39.938Z,11.68
2023-02-25T02:34:16.916Z,13.55
2023-02-25T02:37:20.462Z,11.75
2023-02-25T02:40:05.824Z,16.30
2023-02-25T02:42:54.648Z,12.27
2023-02-25T02:45:21.624Z,12.10
2023-02-25T02:48:14.625Z,10.93
2023-02-25T02:50:57.746Z,11.88
2023-02-25T02:53:59.183Z,10.95
2023-02-25T02:56:29.713Z,10.15
2023-02-25T02:59:33.586Z,11.52
2023-02-25T03:02:11.024Z,11.63
2023-02-25T03:04:41.642Z,11.27
2023-02-25T03:07:12.049Z,11.52
2023-02-25T03:09:45.225Z,10.45
2023-02-25T03:12:12.872Z,12.50
2023-02-25T03:14:40.743Z,9.95
2023-02-25T03:17:36.436Z,12.10
2023-02-25T03:20:22.380Z,13.40
2023-02-25T03:22:53.612Z,12.98
2023-02-25T03:25:22.143Z,10.63
2023-02-25T03:27:53.069Z,13.20
2023-02-25T03:30:55.984Z,14.70
2023-02-25T03:33:39.323Z,14.85
2023-02-25T03:36:13.787Z,14.27
2023-02-25T03:38:47.006Z,13.40
2023-02-25T03:41:17.175Z,13.02
2023-02-25T03:43:54.970Z,13.27
2023-02-25T03:46:24.225Z,15.00
2023-02-25T03:48:56.263Z,15.32
2023-02-25T03:51:36.334Z,15.73
2023-02-25T03:54:04.018Z,13.45
2023-02-25T03:56:49.979Z,15.23
2023-02-25T03:59:19.063Z,12.32
2023-02-25T04:01:51.088Z,17.85
2023-02-25T04:04:21.027Z,13.73
2023-02-25T04:06:48.358Z,14.02
2023-02-25T04:09:15.596Z,17.50
2023-02-25T04:11:42.785Z,14.32
2023-02-25T04:14:09.861Z,16.90
2023-02-25T04:16:37.278Z,17.73
2023-02-25T04:19:06.581Z,20.45
2023-02-25T04:21:36.499Z,19.55
2023-02-25T04:24:07.530Z,18.02
2023-02-25T04:26:35.990Z,18.35
2023-02-25T04:29:04.293Z,16.77
2023-02-25T04:31:32.146Z,15.52
2023-02-25T04:34:02.045Z,17.58
2023-02-25T04:36:34.165Z,15.52
2023-02-25T04:39:05.145Z,16.05
2023-02-25T04:41:35.565Z,15.52
2023-02-25T04:44:04.622Z,19.33
2023-02-25T04:46:35.024Z,14.02
2023-02-25T04:49:02.853Z,16.77
2023-02-25T04:51:30.141Z,16.45
2023-02-25T04:53:57.769Z,16.48
2023-02-25T04:56:25.485Z,15.55
2023-02-25T04:58:55.292Z,16.13
2023-02-25T05:01:26.928Z,14.75
2023-02-25T05:03:57.067Z,13.20
2023-02-25T05:06:28.414Z,14.07
2023-02-25T05:09:00.174Z,15.38
2023-02-25T05:11:29.325Z,15.55
2023-02-25T05:13:57.256Z,15.30
2023-02-25T05:16:29.475Z,20.00
2023-02-25T05:21:29.588Z,15.88
2023-02-25T05:23:59.021Z,15.05
2023-02-25T05:26:26.429Z,14.45
2023-02-25T05:28:56.861Z,13.20
2023-02-25T05:31:27.164Z,16.23
2023-02-25T05:33:54.494Z,19.25
2023-02-25T05:36:22.139Z,16.80
2023-02-25T05:38:52.928Z,17.70
2023-02-25T05:41:20.303Z,17.45
2023-02-25T05:43:47.592Z,21.02
2023-02-25T05:46:15.130Z,21.45
2023-02-25T05:48:48.960Z,20.95
2023-02-25T05:51:19.963Z,19.40
2023-02-25T05:53:52.057Z,20.42
2023-02-25T05:56:24.111Z,21.25
2023-02-25T06:01:27.941Z,20.58
2023-02-25T06:03:58.706Z,22.80
2023-02-25T06:06:30.039Z,18.52
2023-02-25T06:09:00.158Z,23.30
2023-02-25T06:11:30.375Z,19.98
2023-02-25T06:13:59.175Z,18.27
2023-02-25T06:16:32.494Z,22.60
2023-02-25T06:19:01.669Z,16.88
2023-02-25T06:21:31.856Z,18.58
2023-02-25T06:23:59.557Z,15.88
2023-02-25T06:26:27.041Z,14.85
2023-02-25T06:28:54.312Z,14.15
2023-02-25T06:31:25.064Z,16.40
2023-02-25T06:33:55.243Z,14.90
2023-02-25T06:36:22.683Z,15.73
2023-02-25T06:38:50.094Z,18.90
2023-02-25T06:41:20.880Z,18.90
2023-02-25T06:43:52.609Z,17.63
2023-02-25T06:46:23.524Z,17.92
2023-02-25T06:48:51.129Z,14.10
2023-02-25T06:51:25.960Z,15.63
2023-02-25T06:53:53.431Z,18.88
2023-02-25T06:56:22.445Z,17.88
2023-02-25T06:58:52.724Z,16.23
2023-02-25T07:01:19.971Z,14.88
2023-02-25T07:03:49.668Z,16.30
2023-02-25T07:06:19.420Z,15.88
2023-02-25T07:08:46.726Z,12.98
2023-02-25T07:11:29.349Z,13.05
2023-02-25T07:13:57.486Z,10.23
2023-02-25T07:16:27.105Z,11.93
2023-02-25T07:18:54.146Z,9.10
2023-02-25T07:21:21.584Z,8.98
2023-02-25T07:23:49.288Z,7.50
2023-02-25T07:26:16.850Z,6.70
2023-02-25T07:28:44.289Z,6.53
2023-02-25T07:31:18.652Z,6.43
2023-02-25T07:33:46.525Z,8.95
2023-02-25T07:36:17.176Z,6.63
2023-02-25T07:38:45.574Z,5.60
2023-02-25T07:41:15.961Z,9.40
2023-02-25T07:43:43.739Z,6.80
2023-02-25T07:46:13.437Z,8.15
2023-02-25T07:48:41.137Z,6.93
2023-02-25T07:51:18.723Z,6.40
2023-02-25T07:53:47.993Z,4.18
2023-02-25T07:56:17.590Z,6.10
2023-02-25T07:58:45.176Z,5.70
2023-02-25T08:01:34.840Z,4.93
2023-02-25T08:04:05.941Z,5.00
2023-02-25T08:06:38.730Z,4.25
2023-02-25T08:09:13.516Z,2.70
2023-02-25T08:11:41.078Z,1.98
2023-02-25T08:14:08.148Z,3.85
2023-02-25T08:16:38.717Z,3.95
2023-02-25T08:19:06.776Z,2.22
2023-02-25T08:21:34.328Z,2.58
2023-02-25T08:24:01.627Z,2.88
2023-02-25T08:26:31.117Z,3.67
2023-02-25T08:28:58.693Z,3.22
2023-02-25T08:31:26.668Z,4.53
2023-02-25T08:33:55.225Z,3.35
2023-02-25T08:36:26.840Z,3.83
2023-02-25T08:38:58.680Z,4.82
2023-02-25T08:41:28.062Z,3.47
2023-02-25T08:43:58.082Z,4.82
2023-02-25T08:46:27.830Z,5.15
2023-02-25T08:48:55.464Z,3.55
2023-02-25T08:51:34.705Z,2.75
2023-02-25T08:54:07.869Z,3.05
2023-02-25T08:56:36.943Z,3.50
2023-02-25T08:59:05.386Z,2.78
2023-02-25T09:01:44.968Z,2.95
2023-02-25T09:04:18.020Z,2.88
2023-02-25T09:06:48.261Z,3.45
2023-02-25T09:09:18.353Z,3.65
2023-02-25T09:11:47.708Z,5.32
2023-02-25T09:14:15.477Z,3.00
2023-02-25T09:16:45.580Z,4.25
2023-02-25T09:19:15.848Z,3.78
2023-02-25T09:21:43.137Z,4.20
2023-02-25T09:24:11.014Z,4.28
2023-02-25T09:26:38.460Z,3.28
2023-02-25T09:29:09.202Z,5.18
2023-02-25T09:31:39.977Z,4.30
2023-02-25T09:34:11.157Z,5.93
2023-02-25T09:36:38.328Z,4.75
2023-02-25T09:39:10.520Z,4.15
2023-02-25T09:44:29.626Z,11.85
2023-02-25T09:47:07.757Z,5.15
2023-02-25T09:49:41.572Z,6.35
2023-02-25T09:52:32.155Z,5.88
2023-02-25T09:55:16.363Z,4.55
2023-02-25T09:57:49.715Z,9.07
2023-02-25T10:00:21.859Z,4.70
2023-02-25T10:03:12.083Z,4.80
2023-02-25T10:06:20.581Z,5.30
2023-02-25T10:09:15.642Z,29.00
2023-02-25T10:12:06.850Z,10.48
2023-02-25T10:14:36.979Z,4.63
2023-02-25T10:17:56.498Z,4.03
2023-02-25T10:20:58.073Z,3.97
2023-02-25T10:23:49.333Z,4.72
2023-02-25T10:26:42.821Z,6.07
2023-02-25T10:29:29.291Z,7.07
2023-02-25T10:32:00.786Z,4.75
2023-02-25T10:34:32.810Z,9.75
2023-02-25T10:37:00.842Z,14.98
2023-02-25T10:39:29.269Z,11.35
2023-02-25T10:41:58.511Z,12.48
2023-02-25T10:44:25.557Z,8.55
2023-02-25T10:47:05.633Z,7.43
2023-02-25T10:49:38.473Z,7.43
2023-02-25T10:52:18.162Z,7.63
2023-02-25T10:54:48.237Z,11.93
2023-02-25T10:57:28.295Z,10.63
2023-02-25T11:00:24.910Z,10.38
2023-02-25T11:02:52.640Z,12.23
2023-02-25T11:05:36.356Z,12.05
2023-02-25T11:08:08.641Z,11.52
2023-02-25T11:13:06.188Z,9.52
2023-02-25T11:15:45.396Z,8.93
2023-02-25T11:18:19.424Z,9.32
2023-02-25T11:20:59.387Z,8.98
2023-02-25T11:23:49.170Z,9.32
2023-02-25T11:26:37.303Z,6.85
2023-02-25T11:29:39.280Z,8.00
2023-02-25T11:32:18.234Z,8.93
2023-02-25T11:34:59.581Z,4.45
2023-02-25T11:37:43.105Z,5.45
2023-02-25T11:40:30.248Z,3.70
2023-02-25T11:43:06.443Z,7.45
2023-02-25T11:45:47.116Z,5.20
2023-02-25T11:48:46.061Z,7.90
2023-02-25T11:51:35.435Z,5.47
2023-02-25T11:54:27.338Z,6.53
2023-02-25T11:57:43.668Z,5.25
2023-02-25T12:00:22.653Z,5.60
2023-02-25T12:03:01.517Z,6.55
2023-02-25T12:06:34.004Z,5.97
2023-02-25T12:09:55.289Z,7.67
2023-02-25T12:13:25.076Z,6.57
2023-02-25T12:16:00.942Z,6.43
2023-02-25T12:18:55.210Z,3.67
2023-02-25T12:22:12.845Z,5.20
2023-02-25T12:25:25.913Z,4.32
2023-02-25T12:27:53.021Z,4.18
2023-02-25T12:30:54.023Z,3.55
2023-02-25T12:33:44.812Z,3.13
2023-02-25T12:36:50.035Z,2.00
2023-02-25T12:39:33.807Z,5.90
2023-02-25T12:42:22.093Z,2.40
2023-02-25T12:45:35.858Z,2.60
2023-02-25T12:48:29.169Z,2.58
2023-02-25T12:51:21.435Z,2.60
2023-02-25T12:54:11.461Z,2.38
2023-02-25T12:57:08.787Z,1.80
2023-02-25T13:00:10.217Z,1.67
2023-02-25T13:03:21.402Z,2.60
2023-02-25T13:06:33.118Z,1.33
2023-02-25T13:10:17.788Z,2.08
2023-02-25T13:13:14.587Z,1.90
2023-02-25T13:16:15.057Z,2.67
2023-02-25T13:19:33.774Z,1.42
2023-02-25T13:22:23.861Z,3.30
2023-02-25T13:25:15.540Z,1.85
2023-02-25T13:28:40.261Z,2.53
2023-02-25T13:32:11.661Z,3.10
2023-02-25T13:35:09.532Z,2.30
2023-02-25T13:38:15.629Z,1.85
2023-02-25T13:41:23.609Z,4.85
2023-02-25T13:43:59.619Z,1.60
2023-02-25T13:47:10.898Z,2.72
2023-02-25T13:50:05.292Z,1.58
2023-02-25T13:53:12.244Z,1.95
2023-02-25T13:55:43.084Z,2.50
2023-02-25T13:58:41.458Z,2.67
2023-02-25T14:01:43.429Z,2.70
2023-02-25T14:04:33.359Z,1.80
2023-02-25T14:07:19.123Z,2.17
2023-02-25T14:10:26.597Z,1.58
2023-02-25T14:14:05.737Z,2.85
2023-02-25T14:16:53.341Z,2.55
2023-02-25T14:19:38.915Z,2.47
2023-02-25T14:22:44.371Z,3.00
2023-02-25T14:25:34.248Z,1.83
2023-02-25T14:28:35.831Z,2.42
2023-02-25T14:31:40.948Z,1.75
2023-02-25T14:34:29.776Z,1.88
2023-02-25T14:37:07.960Z,2.70
2023-02-25T14:40:15.373Z,2.15
2023-02-25T14:43:13.789Z,3.70
2023-02-25T14:45:53.311Z,1.95
2023-02-25T14:48:26.618Z,1.95
2023-02-25T14:51:30.578Z,2.33
2023-02-25T14:54:18.613Z,1.40
2023-02-25T14:57:00.737Z,1.15
2023-02-25T14:59:45.692Z,1.60
2023-02-25T15:02:29.884Z,2.22
2023-02-25T15:05:21.915Z,1.48
2023-02-25T15:08:19.051Z,2.22
2023-02-25T15:11:16.829Z,2.47
2023-02-25T15:14:02.392Z,2.83
2023-02-25T15:16:41.815Z,2.45
2023-02-25T15:19:29.951Z,2.67
2023-02-25T15:22:29.552Z,1.80
2023-02-25T15:25:19.865Z,2.53
2023-02-25T15:28:00.239Z,1.58
2023-02-25T15:30:28.934Z,3.47
2023-02-25T15:33:36.593Z,3.90
2023-02-25T15:36:21.622Z,2.65
2023-02-25T15:38:55.681Z,1.85
2023-02-25T15:41:35.161Z,1.92
2023-02-25T15:44:22.713Z,2.15
2023-02-25T15:46:50.846Z,1.73
2023-02-25T15:49:44.620Z,3.15
2023-02-25T15:52:12.463Z,3.42
2023-02-25T15:54:39.457Z,2.55
2023-02-25T15:57:09.440Z,1.85
2023-02-25T15:59:43.353Z,2.42
2023-02-25T16:02:33.528Z,1.55
2023-02-25T16:05:39.597Z,3.95
2023-02-25T16:08:28.714Z,4.45
2023-02-25T16:10:57.220Z,3.47
2023-02-25T16:13:34.610Z,2.67
2023-02-25T16:16:04.338Z,2.88
2023-02-25T16:18:50.724Z,3.15
2023-02-25T16:21:32.964Z,3.00
2023-02-25T16:24:01.201Z,3.75
2023-02-25T16:26:42.346Z,1.88
2023-02-25T16:29:48.668Z,3.22
2023-02-25T16:32:59.348Z,2.15
2023-02-25T16:35:41.296Z,2.35
2023-02-25T16:38:38.007Z,2.35
2023-02-25T16:41:08.206Z,3.60
2023-02-25T16:43:39.274Z,2.78
2023-02-25T16:46:12.873Z,1.70
2023-02-25T16:48:51.063Z,2.90
2023-02-25T16:51:32.096Z,2.15
2023-02-25T16:54:25.512Z,2.97
2023-02-25T16:57:01.109Z,2.58
2023-02-25T16:59:33.556Z,5.63
2023-02-25T17:02:24.982Z,4.38
2023-02-25T17:04:55.364Z,4.35
2023-02-25T17:07:23.089Z,4.35
2023-02-25T17:10:00.745Z,3.72
2023-02-25T17:12:40.966Z,3.58
2023-02-25T17:15:21.606Z,3.53
2023-02-25T17:18:01.483Z,2.40
2023-02-25T17:20:29.053Z,3.72
2023-02-25T17:22:58.676Z,3.85
2023-02-25T17:25:34.959Z,3.08
2023-02-25T17:28:02.125Z,3.78
2023-02-25T17:30:39.941Z,3.60
2023-02-25T17:33:22.243Z,2.28
2023-02-25T17:35:54.582Z,3.85
2023-02-25T17:38:24.986Z,2.80
2023-02-25T17:40:55.392Z,5.22
2023-02-25T17:43:26.082Z,4.85
2023-02-25T17:46:21.537Z,4.28
2023-02-25T17:49:16.047Z,5.25
2023-02-25T17:51:43.360Z,4.43
2023-02-25T17:54:20.909Z,2.60
2023-02-25T17:57:06.201Z,3.28
2023-02-25T17:59:36.612Z,3.25
2023-02-25T18:02:30.629Z,6.10
2023-02-25T18:05:12.747Z,3.78
2023-02-25T18:08:16.695Z,3.88
2023-02-25T18:10:55.343Z,2.70
2023-02-25T18:13:28.629Z,4.65
2023-02-25T18:16:39.118Z,3.75
2023-02-25T18:19:31.283Z,3.78
2023-02-25T18:22:01.040Z,3.88
2023-02-25T18:24:35.901Z,4.90
2023-02-25T18:27:09.032Z,4.78
2023-02-25T18:29:36.151Z,5.75
2023-02-25T18:32:03.558Z,2.67
2023-02-25T18:34:30.868Z,6.07
2023-02-25T18:37:00.678Z,3.13
2023-02-25T18:39:27.866Z,4.20
2023-02-25T18:41:55.879Z,5.75
2023-02-25T18:44:23.035Z,5.22
2023-02-25T18:46:50.142Z,5.13
2023-02-25T18:49:19.751Z,4.95
2023-02-25T18:51:49.503Z,3.97
2023-02-25T18:54:19.099Z,3.55
2023-02-25T18:56:48.241Z,5.93
2023-02-25T18:59:18.014Z,4.28
2023-02-25T19:01:45.454Z,5.63
2023-02-25T19:04:17.459Z,6.80
2023-02-25T19:06:47.458Z,6.40
2023-02-25T19:09:14.559Z,6.38
2023-02-25T19:11:41.748Z,5.68
2023-02-25T19:14:15.930Z,6.10
2023-02-25T19:16:42.967Z,5.93
2023-02-25T19:19:10.116Z,5.53
2023-02-25T19:21:37.217Z,8.38
2023-02-25T19:24:05.387Z,8.23
2023-02-25T19:26:32.607Z,8.30
2023-02-25T19:29:00.728Z,4.50
2023-02-25T19:31:27.891Z,7.07
2023-02-25T19:33:57.549Z,3.85
2023-02-25T19:36:25.128Z,11.27
2023-02-25T19:38:52.342Z,4.93
2023-02-25T19:41:22.764Z,7.85
2023-02-25T19:43:49.898Z,6.18
2023-02-25T19:46:18.022Z,5.97
2023-02-25T19:48:45.192Z,5.30
2023-02-25T19:51:12.485Z,5.15
2023-02-25T19:53:39.658Z,6.30
2023-02-25T19:56:08.072Z,7.22
2023-02-25T19:58:35.267Z,7.50
2023-02-25T20:01:11.544Z,9.98
2023-02-25T20:03:38.726Z,6.20
2023-02-25T20:06:08.572Z,8.13
2023-02-25T20:08:39.608Z,7.00
2023-02-25T20:11:11.582Z,7.68
2023-02-25T20:13:39.282Z,8.25
2023-02-25T20:16:07.615Z,7.25
2023-02-25T20:18:34.713Z,5.15
2023-02-25T20:21:01.811Z,6.60
2023-02-25T20:23:29.756Z,7.32
2023-02-25T20:26:15.229Z,9.45
2023-02-25T20:28:42.454Z,5.82
2023-02-25T20:31:13.957Z,7.03
2023-02-25T20:33:42.127Z,9.40
2023-02-25T20:36:47.791Z,6.18
2023-02-25T20:39:20.611Z,7.15
2023-02-25T20:41:50.052Z,14.45
2023-02-25T20:44:17.551Z,7.45
2023-02-25T20:46:44.839Z,5.75
2023-02-25T20:49:18.425Z,8.32
2023-02-25T20:51:47.816Z,5.28
2023-02-25T20:54:17.541Z,3.42
2023-02-25T20:56:46.469Z,3.97
2023-02-25T20:59:15.009Z,5.10
2023-02-25T21:01:43.031Z,3.47
2023-02-25T21:04:10.633Z,5.80
2023-02-25T21:06:38.518Z,4.28
2023-02-25T21:09:06.969Z,3.25
2023-02-25T21:11:34.222Z,3.67
2023-02-25T21:14:09.252Z,2.92
2023-02-25T21:16:40.021Z,3.17
2023-02-25T21:19:07.678Z,3.05
2023-02-25T21:21:38.846Z,3.63
2023-02-25T21:24:15.115Z,3.88
2023-02-25T21:26:43.402Z,3.08
2023-02-25T21:29:14.084Z,2.17
2023-02-25T21:31:41.709Z,4.38
2023-02-25T21:34:12.901Z,4.93
2023-02-25T21:36:42.155Z,3.70
2023-02-25T21:39:12.561Z,2.83
2023-02-25T21:41:44.796Z,4.57
2023-02-25T21:44:12.905Z,3.00
2023-02-25T21:46:41.083Z,1.85
2023-02-25T21:49:10.582Z,5.18
2023-02-25T21:51:40.398Z,2.05
2023-02-25T21:54:10.373Z,2.78
2023-02-25T21:56:37.597Z,2.00
2023-02-25T21:59:06.051Z,1.65
2023-02-25T22:01:41.212Z,1.92
2023-02-25T22:04:08.924Z,3.25
2023-02-25T22:06:38.425Z,3.17
2023-02-25T22:09:07.775Z,2.47
2023-02-25T22:11:36.958Z,2.42
2023-02-25T22:14:09.792Z,3.40
2023-02-25T22:16:39.391Z,1.33
2023-02-25T22:19:06.740Z,3.40
2023-02-25T22:21:36.843Z,3.28
2023-02-25T22:24:05.237Z,2.65
2023-02-25T22:26:35.158Z,2.65
2023-02-25T22:29:07.415Z,1.63
2023-02-25T22:34:05.790Z,1.90
2023-02-25T22:36:33.325Z,1.88
2023-02-25T22:39:06.383Z,2.90
2023-02-25T22:41:33.989Z,3.40
2023-02-25T22:44:02.884Z,4.30
2023-02-25T22:46:38.770Z,2.03
2023-02-25T22:49:08.419Z,2.67
2023-02-25T22:51:42.920Z,2.85
2023-02-25T22:54:15.562Z,1.75
2023-02-25T22:56:44.026Z,1.58
2023-02-25T22:59:12.480Z,2.15
2023-02-25T23:01:40.734Z,3.00
2023-02-25T23:04:11.010Z,1.05
2023-02-25T23:06:44.139Z,1.55
2023-02-25T23:09:16.258Z,4.07
2023-02-25T23:11:47.002Z,1.90
2023-02-25T23:14:16.844Z,3.72
2023-02-25T23:16:45.655Z,3.38
2023-02-25T23:19:17.464Z,3.10
2023-02-25T23:21:45.564Z,2.15
2023-02-25T23:24:18.575Z,2.60
2023-02-25T23:26:50.569Z,2.30
2023-02-25T23:29:18.093Z,2.75
2023-02-25T23:31:47.643Z,4.07
2023-02-25T23:34:25.610Z,3.42
2023-02-25T23:36:56.877Z,3.38
2023-02-25T23:39:24.394Z,3.00
2023-02-25T23:41:54.029Z,1.83
2023-02-25T23:44:21.253Z,4.82
2023-02-25T23:46:48.454Z,4.50
2023-02-25T23:49:17.913Z,2.90
2023-02-25T23:51:47.935Z,2.60
2023-02-25T23:54:19.488Z,3.95
2023-02-25T23:56:47.201Z,2.47
2023-02-25T23:59:14.843Z,3.40
